South Moline, Illinois
Current Conditions -  °F | °C
As of 1:52 AM on Thursday 29 Jan 2015 (Local Time) from KMLI Reporting Station
Clear Clear  
Wind Chill: 33°   Ceiling: Unl
Heat Index: 37°   Visibility: 10mi
Dew Point: 31°   Wind: 5mph
Humidity: 79%   Direction: 300°WNW
Pressure: 29.67"   Gusts: NA
Location:  41.5228°N, 90.3951°W
Report Text: KMLI 290752Z AUTO 30004KT 10SM CLR 03/M01 A2967 RMK AO2 SLP053 T00281006
Loading
Personal Weather Stations






























Interactive Weather Map New forecast layout! Learn more

10-Day Weather Forecast

Advertisements
Track Severe Weather on mobile